Time;durP1;ratioP1;P1;durP2;ratioP2;P2;SDS_P1;SDS_P2;PMS_P1;PMS_P2;Temp;Humidity;BMP_temperature;BMP_pressure;BME280_temperature;BME280_humidity;BME280_pressure;Samples;Min_cycle;Max_cycle;Signal;HPM_P1;HPM_P2
2022/05/11 00:00:23;;;;;;;;;8.00;8.00;;;;;23.40;41.49;100898.81;2087904;28;47150;-54
2022/05/11 00:01:25;;;;;;;;;7.00;7.00;;;;;23.40;41.60;100905.09;2087437;28;48126;-54
2022/05/11 00:02:26;;;;;;;;;9.40;9.40;;;;;23.37;41.39;100899.88;2087306;28;47514;-56
2022/05/11 00:03:27;;;;;;;;;7.75;7.75;;;;;23.37;41.77;100907.13;2087654;28;47603;-53
2022/05/11 00:04:27;;;;;;;;;8.00;8.00;;;;;23.35;41.49;100904.53;2087722;28;47614;-53
2022/05/11 00:05:28;;;;;;;;;7.50;6.50;;;;;23.35;41.54;100903.69;2088013;28;45493;-55
2022/05/11 00:06:29;;;;;;;;;8.00;8.00;;;;;23.33;41.48;100900.22;2087776;28;46566;-54
2022/05/11 00:07:29;;;;;;;;;8.20;8.20;;;;;23.34;41.55;100905.53;2087307;28;48168;-55
2022/05/11 00:08:30;;;;;;;;;6.75;6.75;;;;;23.34;41.54;100901.94;2095437;28;47075;-54
2022/05/11 00:09:30;;;;;;;;;7.00;7.00;;;;;23.32;41.46;100899.34;2095689;28;47866;-53
2022/05/11 00:10:32;;;;;;;;;9.50;9.25;;;;;23.33;41.44;100901.09;2087825;28;48468;-54
2022/05/11 00:11:33;;;;;;;;;8.00;8.00;;;;;23.33;41.30;100905.63;2087594;28;46901;-56
2022/05/11 00:12:34;;;;;;;;;10.00;8.80;;;;;23.33;41.75;100900.22;2095028;28;47892;-56
2022/05/11 00:13:34;;;;;;;;;7.25;7.25;;;;;23.33;41.88;100901.09;2095678;28;47541;-54
2022/05/11 00:14:35;;;;;;;;;9.00;9.00;;;;;23.34;41.62;100899.25;2087597;28;47820;-54
2022/05/11 00:15:36;;;;;;;;;8.75;8.75;;;;;23.31;41.67;100897.63;2087540;28;47607;-54
2022/05/11 00:16:36;;;;;;;;;11.20;11.20;;;;;23.30;41.40;100895.91;2087295;28;47919;-55
2022/05/11 00:17:37;;;;;;;;;10.25;10.25;;;;;23.30;41.68;100895.91;2085669;28;46468;-55
2022/05/11 00:18:41;;;;;;;;;10.50;9.75;;;;;23.29;41.54;100896.00;2083055;28;47536;-52
2022/05/11 00:19:41;;;;;;;;;9.60;9.60;;;;;23.28;41.82;100888.88;2087594;28;48103;-55
2022/05/11 00:20:42;;;;;;;;;9.00;7.50;;;;;23.27;41.59;100893.41;2088215;28;47313;-56
2022/05/11 00:21:42;;;;;;;;;8.25;8.25;;;;;23.26;41.50;100888.13;2088423;28;47339;-55
2022/05/11 00:22:43;;;;;;;;;9.00;9.00;;;;;23.25;41.98;100886.34;2088548;28;47348;-55
2022/05/11 00:23:44;;;;;;;;;7.00;7.00;;;;;23.24;41.85;100881.91;2087708;28;47222;-52
2022/05/11 00:24:45;;;;;;;;;7.75;7.75;;;;;23.24;41.76;100884.63;2088480;28;48042;-55
2022/05/11 00:25:45;;;;;;;;;8.75;8.75;;;;;23.23;41.77;100877.47;2088640;28;47910;-56
2022/05/11 00:26:46;;;;;;;;;9.50;9.50;;;;;23.23;41.56;100882.91;2088393;28;47685;-55
2022/05/11 00:27:46;;;;;;;;;8.00;8.00;;;;;23.22;42.02;100882.03;2088486;28;47824;-56
2022/05/11 00:28:47;;;;;;;;;8.00;8.00;;;;;23.23;41.67;100882.91;2086862;28;47395;-55
2022/05/11 00:29:47;;;;;;;;;8.33;8.33;;;;;23.22;42.01;100878.47;2088362;28;47496;-55
2022/05/11 00:30:48;;;;;;;;;10.00;8.25;;;;;23.20;41.63;100887.56;2088260;28;47524;-55
2022/05/11 00:31:48;;;;;;;;;7.25;7.25;;;;;23.19;41.59;100879.56;2088072;28;47758;-55
2022/05/11 00:32:53;;;;;;;;;9.00;9.00;;;;;23.17;42.03;100867.97;2088164;28;47485;-55
2022/05/11 00:33:54;;;;;;;;;9.20;8.80;;;;;23.17;41.58;100879.66;2088464;28;47489;-55
2022/05/11 00:34:54;;;;;;;;;8.75;7.00;;;;;23.17;42.12;100878.81;2088457;28;47495;-54
2022/05/11 00:35:55;;;;;;;;;6.50;6.25;;;;;23.16;41.73;100875.22;2088586;28;48169;-54
2022/05/11 00:36:59;;;;;;;;;10.25;9.50;;;;;23.14;41.82;100874.47;2088310;28;47012;-56
2022/05/11 00:38:01;;;;;;;;;8.40;8.40;;;;;23.14;42.13;100874.47;2091081;28;46456;-54
2022/05/11 00:39:02;;;;;;;;;7.80;7.80;;;;;23.13;42.10;100866.47;2096819;28;47843;-56
2022/05/11 00:40:04;;;;;;;;;6.80;5.60;;;;;23.12;42.31;100871.03;2090239;28;47734;-54
2022/05/11 00:41:05;;;;;;;;;10.00;9.80;;;;;23.12;41.98;100865.59;2088294;28;47776;-57
2022/05/11 00:42:06;;;;;;;;;9.00;8.80;;;;;23.11;41.83;100863.84;2088230;28;47609;-56
2022/05/11 00:43:08;;;;;;;;;8.75;7.25;;;;;23.12;41.84;100862.00;2087357;28;47205;-57
2022/05/11 00:44:12;;;;;;;;;11.40;9.60;;;;;23.11;41.90;100862.97;2088089;28;47887;-55
2022/05/11 00:45:13;;;;;;;;;7.00;7.00;;;;;23.09;41.94;100860.38;2088440;28;47453;-55
2022/05/11 00:46:37;;;;;;;;;8.40;7.80;;;;;23.06;41.75;100860.63;2083898;28;47746;-54
2022/05/11 00:47:44;;;;;;;;;7.40;7.20;;;;;23.04;42.02;100862.56;2083565;28;47542;-56
2022/05/11 00:50:35;;;;;;;;;6.80;6.80;;;;;23.01;42.32;100854.69;2088165;28;47761;-55
2022/05/11 00:51:43;;;;;;;;;6.80;6.80;;;;;23.00;42.54;100857.50;2070745;28;48147;-55
2022/05/11 00:52:49;;;;;;;;;5.20;4.80;;;;;22.99;42.55;100851.19;2070684;28;47846;-55
2022/05/11 00:53:53;;;;;;;;;6.00;6.00;;;;;22.97;42.36;100852.28;2070805;28;48088;-53
2022/05/11 00:55:01;;;;;;;;;7.60;7.60;;;;;22.98;42.25;100851.31;2070833;28;47885;-56
2022/05/11 00:56:03;;;;;;;;;6.60;6.60;;;;;22.95;42.20;100849.69;2069554;28;47878;-57
2022/05/11 00:57:10;;;;;;;;;5.20;5.20;;;;;22.95;42.28;100846.13;2062726;28;47914;-54
2022/05/11 00:58:20;;;;;;;;;8.80;7.20;;;;;22.92;42.32;100844.50;2070949;28;47786;-53
2022/05/11 00:59:31;;;;;;;;;8.00;6.00;;;;;22.92;42.68;100841.78;2064730;28;47493;-54
2022/05/11 01:00:32;;;;;;;;;7.80;6.00;;;;;22.90;42.51;100841.91;2065169;28;47312;-55
2022/05/11 01:01:33;;;;;;;;;9.25;8.25;;;;;22.90;42.42;100838.34;2070578;28;47541;-56
2022/05/11 01:02:35;;;;;;;;;6.40;6.40;;;;;22.89;42.33;100844.72;2070229;28;47659;-54
2022/05/11 01:03:49;;;;;;;;;5.00;5.00;;;;;22.87;42.44;100835.84;2070709;28;48270;-53
2022/05/11 01:04:56;;;;;;;;;5.80;4.80;;;;;22.87;42.90;100839.44;2070890;28;47868;-57
2022/05/11 01:05:57;;;;;;;;;7.60;7.00;;;;;22.86;42.42;100831.38;2070550;28;48202;-55
2022/05/11 01:07:00;;;;;;;;;7.20;7.20;;;;;22.87;42.56;100833.16;2070872;28;47502;-54
2022/05/11 01:08:01;;;;;;;;;7.00;7.00;;;;;22.85;42.54;100832.38;2069636;28;48005;-55
2022/05/11 01:09:04;;;;;;;;;7.75;7.00;;;;;22.85;42.69;100829.66;2070220;28;47529;-53
2022/05/11 01:10:06;;;;;;;;;5.40;5.40;;;;;22.85;42.72;100832.38;2070782;28;47591;-55
2022/05/11 01:11:08;;;;;;;;;6.00;6.00;;;;;22.84;42.74;100825.22;2070968;28;47775;-54
2022/05/11 01:12:17;;;;;;;;;6.20;6.20;;;;;22.85;42.65;100829.66;2070782;28;47788;-56
2022/05/11 01:13:18;;;;;;;;;6.40;6.40;;;;;22.84;42.56;100822.53;2070674;28;47627;-55
2022/05/11 01:14:24;;;;;;;;;5.80;5.80;;;;;22.83;42.59;100823.50;2069365;28;47933;-56
2022/05/11 01:15:29;;;;;;;;;8.00;7.40;;;;;22.82;42.56;100819.88;2062753;28;47725;-53
2022/05/11 01:16:29;;;;;;;;;6.40;6.40;;;;;22.81;42.65;100818.16;2062340;28;47567;-55
2022/05/11 01:17:33;;;;;;;;;7.00;7.00;;;;;22.83;42.81;100815.38;2062799;28;47914;-53
2022/05/11 01:18:34;;;;;;;;;7.20;6.20;;;;;22.80;42.72;100819.13;2062725;28;48077;-55
2022/05/11 01:19:39;;;;;;;;;6.00;5.60;;;;;22.80;42.78;100821.84;2068678;28;47717;-54
2022/05/11 01:20:40;;;;;;;;;7.40;7.40;;;;;22.78;42.77;100815.69;2070734;28;47937;-55
2022/05/11 01:21:49;;;;;;;;;6.00;6.00;;;;;22.76;42.85;100817.63;2070731;28;47112;-57
2022/05/11 01:22:58;;;;;;;;;6.60;6.00;;;;;22.75;42.74;100815.91;2070568;28;48165;-55
2022/05/11 01:24:06;;;;;;;;;7.20;7.20;;;;;22.73;43.02;100812.41;2070773;28;47754;-54
2022/05/11 01:25:09;;;;;;;;;8.40;7.00;;;;;22.73;43.01;100814.25;2070861;28;47549;-54
2022/05/11 01:26:10;;;;;;;;;7.60;6.80;;;;;22.72;42.56;100805.28;2070586;28;47527;-54
2022/05/11 01:27:37;;;;;;;;;8.00;7.25;;;;;22.71;42.55;100803.56;2070785;28;47684;-53
2022/05/11 01:28:43;;;;;;;;;5.60;5.60;;;;;22.71;42.88;100802.69;2074315;28;47942;-56
2022/05/11 01:29:43;;;;;;;;;6.80;6.80;;;;;22.71;43.30;100808.09;2079830;28;47997;-55
2022/05/11 01:30:50;;;;;;;;;6.25;6.25;;;;;22.70;43.00;100800.97;2083355;28;47524;-54
2022/05/11 01:31:50;;;;;;;;;8.40;8.40;;;;;22.68;42.76;100800.22;2088080;28;48166;-55
2022/05/11 01:32:55;;;;;;;;;6.80;6.20;;;;;22.67;43.10;100807.47;2087753;28;47905;-55
2022/05/11 01:33:55;;;;;;;;;6.80;6.80;;;;;22.65;43.19;100798.59;2088022;28;47648;-53
2022/05/11 01:35:06;;;;;;;;;5.75;4.00;;;;;22.64;43.00;100799.56;2088311;28;47907;-54
2022/05/11 01:36:12;;;;;;;;;7.40;6.60;;;;;22.64;43.10;100804.13;2088154;28;47100;-52
2022/05/11 01:37:13;;;;;;;;;6.80;6.80;;;;;22.62;42.96;100798.81;2088163;28;48016;-54
2022/05/11 01:38:49;;;;;;;;;8.00;6.25;;;;;22.61;43.27;100799.75;2087816;28;47525;-53
2022/05/11 01:39:49;;;;;;;;;7.60;7.60;;;;;22.61;42.87;100802.47;2082074;28;47671;-55
2022/05/11 01:40:50;;;;;;;;;4.50;4.50;;;;;22.60;43.28;100803.44;2087292;28;47780;-53
2022/05/11 01:41:52;;;;;;;;;8.00;8.00;;;;;22.59;43.42;100804.41;2087933;28;48000;-53
2022/05/11 01:42:52;;;;;;;;;5.00;5.00;;;;;22.58;43.46;100805.38;2087813;28;48115;-55
2022/05/11 01:43:53;;;;;;;;;8.00;6.50;;;;;22.57;43.36;100806.38;2082922;28;47782;-55
2022/05/11 01:44:54;;;;;;;;;7.80;7.80;;;;;22.56;42.96;100801.94;2103806;28;47232;-54
2022/05/11 01:45:55;;;;;;;;;8.00;6.75;;;;;22.56;43.33;100801.94;2104250;28;47691;-55
2022/05/11 01:46:58;;;;;;;;;5.50;5.50;;;;;22.55;43.59;100803.78;2087710;28;47543;-53
2022/05/11 01:47:58;;;;;;;;;6.80;6.00;;;;;22.55;43.24;100811.03;2087796;28;47620;-53
2022/05/11 01:48:59;;;;;;;;;6.25;6.25;;;;;22.53;43.37;100804.84;2087962;28;47228;-56
2022/05/11 01:50:00;;;;;;;;;8.00;5.40;;;;;22.52;43.35;100803.13;2088184;28;47520;-55
2022/05/11 01:51:01;;;;;;;;;6.25;6.25;;;;;22.51;43.51;100809.50;2088012;28;47660;-54
2022/05/11 01:52:01;;;;;;;;;9.25;7.50;;;;;22.50;43.79;100808.66;2087926;28;47190;-56
2022/05/11 01:53:01;;;;;;;;;6.00;6.00;;;;;22.50;43.14;100807.78;2087888;28;48190;-53
2022/05/11 01:54:02;;;;;;;;;6.75;6.75;;;;;22.49;43.34;100803.34;2094913;28;47330;-55
2022/05/11 01:55:03;;;;;;;;;7.25;5.50;;;;;22.48;43.69;100805.16;2095195;28;47462;-54
2022/05/11 01:56:04;;;;;;;;;7.20;7.20;;;;;22.49;43.50;100803.34;2088066;28;47930;-56
2022/05/11 01:57:05;;;;;;;;;6.50;6.50;;;;;22.47;43.16;100803.44;2088003;28;47591;-56
2022/05/11 01:58:07;;;;;;;;;7.50;7.50;;;;;22.47;43.74;100805.28;2087910;28;46719;-54
2022/05/11 01:59:08;;;;;;;;;6.40;6.40;;;;;22.45;43.46;100808.09;2087968;28;47519;-53
2022/05/11 02:00:09;;;;;;;;;8.00;6.75;;;;;22.42;43.84;100800.19;2088240;28;45292;-55
2022/05/11 02:01:10;;;;;;;;;6.20;6.20;;;;;22.41;43.56;100803.00;2086308;28;47864;-52
2022/05/11 02:02:10;;;;;;;;;5.75;5.75;;;;;22.40;43.46;100798.56;2086840;28;46792;-53
2022/05/11 02:03:11;;;;;;;;;8.25;8.25;;;;;22.39;43.50;100803.13;2087754;28;48015;-54
2022/05/11 02:08:10;;;;;;;;;7.00;7.00;;;;;22.33;43.72;100804.41;2087678;28;47750;-55
2022/05/11 02:09:12;;;;;;;;;7.50;7.50;;;;;22.33;43.74;100801.69;2087801;28;47571;-55
2022/05/11 02:10:13;;;;;;;;;6.60;5.80;;;;;22.32;43.50;100802.66;2087488;28;47786;-55
2022/05/11 02:11:14;;;;;;;;;6.00;6.00;;;;;22.31;43.67;100803.66;2087895;28;47928;-51
2022/05/11 02:12:15;;;;;;;;;9.00;7.00;;;;;22.32;43.86;100796.41;2087158;28;47728;-55
2022/05/11 02:13:15;;;;;;;;;8.00;8.00;;;;;22.32;44.11;100797.25;2086991;28;47892;-54
2022/05/11 02:14:16;;;;;;;;;4.00;4.00;;;;;22.31;44.14;100800.06;2087840;28;47826;-54
2022/05/11 02:15:18;;;;;;;;;5.75;5.75;;;;;22.30;44.08;100796.50;2087726;28;47840;-55
2022/05/11 02:16:19;;;;;;;;;5.40;5.40;;;;;22.31;43.63;100800.06;2087390;28;47840;-55
2022/05/11 02:17:20;;;;;;;;;8.00;8.00;;;;;22.29;43.99;100797.47;2087761;28;48214;-56
2022/05/11 02:18:20;;;;;;;;;7.00;5.80;;;;;22.30;43.76;100795.63;2087580;28;47807;-54
2022/05/11 02:19:21;;;;;;;;;7.25;7.25;;;;;22.29;43.88;100797.47;2087595;28;47268;-55
2022/05/11 02:20:22;;;;;;;;;7.00;6.00;;;;;22.28;43.92;100795.75;2086298;28;47349;-56
2022/05/11 02:21:23;;;;;;;;;4.60;3.40;;;;;22.27;44.05;100802.13;2092736;28;47567;-55
2022/05/11 02:22:24;;;;;;;;;6.80;6.80;;;;;22.26;43.54;100792.28;2094404;28;47787;-56
2022/05/11 02:23:26;;;;;;;;;5.00;5.00;;;;;22.25;44.01;100798.69;2096231;28;47711;-55
2022/05/11 02:24:26;;;;;;;;;8.40;7.40;;;;;22.25;43.77;100793.28;2094245;28;47673;-53
2022/05/11 02:25:27;;;;;;;;;6.50;6.50;;;;;22.23;43.83;100791.63;2094394;28;47152;-54
2022/05/11 02:26:27;;;;;;;;;5.75;5.75;;;;;22.23;44.19;100788.91;2087330;28;47031;-57
2022/05/11 02:27:29;;;;;;;;;8.75;6.50;;;;;22.20;44.08;100790.00;2090685;28;48036;-55
2022/05/11 02:28:30;;;;;;;;;7.40;6.60;;;;;22.19;44.11;100792.81;2095718;28;47591;-55
2022/05/11 02:29:31;;;;;;;;;6.50;6.50;;;;;22.17;44.47;100794.75;2094602;28;47465;-52
2022/05/11 02:30:33;;;;;;;;;8.00;7.00;;;;;22.15;44.66;100791.28;2094029;28;47317;-56
2022/05/11 02:31:33;;;;;;;;;7.00;7.00;;;;;22.13;44.09;100790.53;2095860;28;47845;-54
2022/05/11 02:32:34;;;;;;;;;9.25;8.25;;;;;22.08;44.12;100790.84;2093968;28;47149;-55
2022/05/11 02:33:35;;;;;;;;;10.25;7.25;;;;;22.07;44.20;100785.53;2093950;28;47268;-54
2022/05/11 02:35:55;;;;;;;;;6.80;6.80;;;;;22.04;44.37;100787.47;2093052;28;48915;-55
2022/05/11 02:36:55;;;;;;;;;5.75;5.75;;;;;22.05;44.34;100788.31;2093636;28;48335;-52
2022/05/11 02:37:59;;;;;;;;;8.00;7.50;;;;;22.05;44.68;100785.63;2096128;28;47490;-54
2022/05/11 02:39:00;;;;;;;;;8.20;8.20;;;;;22.04;44.27;100781.19;2094088;28;47691;-55
2022/05/11 02:40:02;;;;;;;;;6.80;6.60;;;;;22.01;44.50;100782.25;2093861;28;47640;-55
2022/05/11 02:41:04;;;;;;;;;7.80;7.80;;;;;22.01;44.43;100784.09;2095692;28;47784;-56
2022/05/11 02:42:05;;;;;;;;;5.60;5.60;;;;;21.97;44.51;100775.31;2093309;28;48049;-53
2022/05/11 02:43:08;;;;;;;;;6.50;6.50;;;;;21.97;44.29;100779.84;2094717;28;47335;-57
2022/05/11 02:44:09;;;;;;;;;7.40;7.40;;;;;21.98;44.61;100789.72;2086501;28;47545;-54
2022/05/11 02:45:10;;;;;;;;;8.00;8.00;;;;;21.96;44.72;100775.44;2087371;28;47697;-55
2022/05/11 02:46:11;;;;;;;;;8.20;7.60;;;;;21.96;44.42;100779.00;2087491;28;49086;-53
2022/05/11 02:47:12;;;;;;;;;7.25;7.25;;;;;21.94;45.01;100771.97;2087134;28;47394;-54
2022/05/11 02:48:18;;;;;;;;;7.40;7.40;;;;;21.93;44.86;100781.03;2087716;28;47634;-56
2022/05/11 02:49:18;;;;;;;;;7.80;6.00;;;;;21.90;44.51;100776.72;2087665;28;47463;-53
2022/05/11 02:50:23;;;;;;;;;4.50;4.50;;;;;21.89;44.70;100774.13;2087702;28;45810;-53
2022/05/11 02:51:24;;;;;;;;;7.20;6.80;;;;;21.88;44.96;100772.41;2087644;28;47927;-54
2022/05/11 02:52:24;;;;;;;;;9.25;8.50;;;;;21.86;45.06;100782.44;2086018;28;47808;-54
2022/05/11 02:53:28;;;;;;;;;6.25;6.25;;;;;21.83;45.16;100769.13;2087168;28;47901;-50
2022/05/11 02:54:28;;;;;;;;;10.60;9.00;;;;;21.81;45.23;100765.66;2087747;28;48010;-57
2022/05/11 02:55:29;;;;;;;;;6.75;6.00;;;;;21.79;45.30;100773.88;2087482;28;47490;-55
2022/05/11 02:56:29;;;;;;;;;7.25;7.25;;;;;21.78;44.71;100768.59;2087625;28;47488;-54
2022/05/11 02:57:30;;;;;;;;;7.25;7.25;;;;;21.78;44.92;100779.38;2087412;28;47619;-52
2022/05/11 02:58:34;;;;;;;;;6.25;6.25;;;;;21.77;44.76;100758.75;2087655;28;48287;-53
2022/05/11 02:59:34;;;;;;;;;7.60;7.60;;;;;21.76;45.36;100774.09;2087565;28;47616;-55
2022/05/11 03:00:37;;;;;;;;;6.50;6.50;;;;;21.75;45.37;100769.66;2087390;28;47224;-55
2022/05/11 03:01:37;;;;;;;;;9.40;8.00;;;;;21.74;44.98;100768.78;2087295;28;47935;-54
2022/05/11 03:02:38;;;;;;;;;7.25;7.25;;;;;21.72;45.14;100770.75;2087192;28;47353;-54
2022/05/11 03:03:38;;;;;;;;;8.25;8.25;;;;;21.71;44.83;100771.69;2084202;28;47859;-56
2022/05/11 03:04:39;;;;;;;;;6.00;6.00;;;;;21.70;45.57;100769.09;2086389;28;45827;-53
2022/05/11 03:05:40;;;;;;;;;7.25;7.25;;;;;21.67;45.44;100766.59;2086198;28;47746;-54
2022/05/11 03:06:42;;;;;;;;;8.80;8.80;;;;;21.66;45.17;100772.97;2079230;28;48084;-52
2022/05/11 03:07:42;;;;;;;;;6.00;6.00;;;;;21.63;45.61;100771.34;2087468;28;47036;-52
2022/05/11 03:08:43;;;;;;;;;6.25;5.25;;;;;21.62;45.33;100768.75;2087471;28;47129;-54
2022/05/11 03:09:44;;;;;;;;;9.50;9.50;;;;;21.60;45.25;100768.84;2087505;28;47619;-54
2022/05/11 03:10:44;;;;;;;;;7.50;7.50;;;;;21.59;45.86;100764.41;2087321;28;47165;-56
2022/05/11 03:11:45;;;;;;;;;7.00;7.00;;;;;21.57;45.36;100766.34;2087360;28;47694;-53
2022/05/11 03:12:46;;;;;;;;;8.00;8.00;;;;;21.57;45.69;100766.34;2087447;28;48230;-55
2022/05/11 03:13:46;;;;;;;;;7.00;7.00;;;;;21.56;45.44;100766.44;2087425;28;47568;-55
2022/05/11 03:14:47;;;;;;;;;7.00;7.00;;;;;21.55;45.38;100770.97;2087590;28;47921;-54
2022/05/11 03:15:47;;;;;;;;;9.50;9.00;;;;;21.56;45.61;100771.84;2087498;28;47477;-53
2022/05/11 03:16:48;;;;;;;;;9.00;7.25;;;;;21.56;45.45;100774.53;2087428;28;48040;-56
2022/05/11 03:17:49;;;;;;;;;9.00;8.75;;;;;21.54;45.42;100763.84;2087486;28;47319;-54
2022/05/11 03:18:49;;;;;;;;;7.75;7.75;;;;;21.53;45.99;100774.75;2087284;28;47877;-52
2022/05/11 03:19:50;;;;;;;;;8.75;8.75;;;;;21.52;45.83;100775.72;2089370;28;47090;-53
2022/05/11 03:20:54;;;;;;;;;7.00;7.00;;;;;21.52;46.13;100773.03;2085995;28;47245;-51
2022/05/11 03:21:54;;;;;;;;;6.80;6.80;;;;;21.50;45.79;100770.44;2081074;28;47794;-55
2022/05/11 03:22:55;;;;;;;;;6.75;6.75;;;;;21.50;45.66;100769.56;2087467;28;47213;-53
2022/05/11 03:23:56;;;;;;;;;8.50;7.75;;;;;21.50;45.87;100765.03;2087412;28;47470;-55
2022/05/11 03:24:58;;;;;;;;;11.00;8.00;;;;;21.51;46.09;100769.47;2087461;28;46431;-53
2022/05/11 03:25:58;;;;;;;;;8.40;7.20;;;;;21.50;46.21;100770.44;2103530;28;47308;-53
2022/05/11 03:26:59;;;;;;;;;7.50;7.50;;;;;21.51;45.38;100769.47;2103444;27;47576;-54
2022/05/11 03:27:59;;;;;;;;;13.75;13.75;;;;;21.51;45.62;100765.91;2087492;28;47966;-57
2022/05/11 03:29:05;;;;;;;;;13.50;13.50;;;;;21.51;46.05;100766.75;2087348;28;47211;-55
2022/05/11 03:30:06;;;;;;;;;12.60;12.60;;;;;21.52;45.98;100760.38;2087404;28;47813;-52
2022/05/11 03:31:07;;;;;;;;;11.40;11.00;;;;;21.51;46.02;100766.75;2087034;28;47521;-53
2022/05/11 03:34:46;;;;;;;;;7.00;7.00;;;;;21.49;45.83;100763.31;2087366;28;48028;-56
2022/05/11 03:35:46;;;;;;;;;8.60;8.60;;;;;21.49;45.86;100762.44;2087109;28;47835;-55
2022/05/11 03:36:47;;;;;;;;;8.50;7.25;;;;;21.47;46.26;100769.75;2087411;28;47851;-55
2022/05/11 03:37:48;;;;;;;;;8.80;8.60;;;;;21.44;46.04;100765.41;2087181;28;47805;-55
2022/05/11 03:38:48;;;;;;;;;6.50;6.50;;;;;21.43;46.42;100772.66;2087441;28;46569;-53
2022/05/11 03:39:49;;;;;;;;;9.00;9.00;;;;;21.43;46.56;100771.78;2087422;28;47475;-53
2022/05/11 03:40:49;;;;;;;;;9.50;7.75;;;;;21.42;46.30;100765.53;2085153;28;46430;-54
2022/05/11 03:41:50;;;;;;;;;7.00;7.00;;;;;21.41;46.41;100766.50;2079487;28;47945;-54
2022/05/11 03:42:50;;;;;;;;;8.50;8.50;;;;;21.42;45.99;100764.66;2084957;28;45523;-54
2022/05/11 03:43:51;;;;;;;;;7.00;6.75;;;;;21.41;46.21;100757.53;2086925;28;47747;-56
2022/05/11 03:44:51;;;;;;;;;7.25;7.25;;;;;21.41;46.23;100755.69;2094731;28;48011;-56
2022/05/11 03:45:51;;;;;;;;;8.75;8.75;;;;;21.41;46.25;100754.84;2094339;28;47525;-54
2022/05/11 03:46:52;;;;;;;;;7.25;7.25;;;;;21.41;46.16;100754.84;2087407;28;47422;-54
2022/05/11 03:47:53;;;;;;;;;11.50;9.75;;;;;21.40;46.79;100759.38;2087002;28;46993;-53
2022/05/11 03:48:53;;;;;;;;;8.00;8.00;;;;;21.41;46.15;100757.53;2087261;28;47338;-54
2022/05/11 03:49:53;;;;;;;;;9.00;9.00;;;;;21.41;46.77;100755.69;2087453;28;47874;-54
2022/05/11 03:50:55;;;;;;;;;9.00;9.00;;;;;21.41;46.22;100760.22;2087279;28;47738;-51
2022/05/11 03:51:55;;;;;;;;;7.60;7.60;;;;;21.40;46.57;100766.59;2087510;28;47477;-54
2022/05/11 03:52:56;;;;;;;;;9.25;7.75;;;;;21.38;46.84;100755.91;2087201;28;47303;-53
2022/05/11 03:53:57;;;;;;;;;8.00;8.00;;;;;21.38;46.44;100755.91;2087317;28;47520;-54
2022/05/11 03:54:57;;;;;;;;;10.00;8.50;;;;;21.39;46.38;100760.34;2087499;28;46833;-52
2022/05/11 03:55:58;;;;;;;;;9.50;9.50;;;;;21.41;46.36;100758.41;2087020;28;47833;-53
2022/05/11 03:56:58;;;;;;;;;9.75;8.00;;;;;21.42;46.47;100757.44;2087306;28;47753;-55
2022/05/11 03:58:00;;;;;;;;;8.50;8.50;;;;;21.44;46.16;100758.19;2087215;28;47794;-55
2022/05/11 03:59:00;;;;;;;;;10.40;10.20;;;;;21.46;46.19;100755.38;2087640;28;47272;-54
2022/05/11 04:00:01;;;;;;;;;10.75;10.75;;;;;21.48;46.47;100756.19;2088780;28;47702;-54
2022/05/11 04:01:01;;;;;;;;;12.25;9.00;;;;;21.51;46.07;100758.66;2088475;28;47896;-54
2022/05/11 04:02:02;;;;;;;;;11.75;9.25;;;;;21.52;46.36;100752.28;2088801;28;47906;-54
2022/05/11 04:03:02;;;;;;;;;8.75;8.75;;;;;21.52;46.63;100763.09;2088675;28;47368;-52
2022/05/11 04:04:04;;;;;;;;;10.00;8.75;;;;;21.52;46.09;100756.81;2088779;28;48113;-53
2022/05/11 04:05:05;;;;;;;;;7.80;6.80;;;;;21.51;46.23;100766.75;2089847;28;47948;-53
2022/05/11 04:06:06;;;;;;;;;8.00;8.00;;;;;21.48;46.76;100752.59;2105086;28;47961;-55
2022/05/11 04:07:07;;;;;;;;;12.00;12.00;;;;;21.48;46.16;100755.31;2099981;28;47124;-57
2022/05/11 04:08:07;;;;;;;;;11.50;10.00;;;;;21.48;46.44;100758.00;2079116;28;48089;-56
2022/05/11 04:09:08;;;;;;;;;8.50;8.50;;;;;21.47;46.38;100756.25;2087244;28;47754;-55
2022/05/11 04:10:10;;;;;;;;;10.50;10.50;;;;;21.45;46.33;100759.06;2070793;28;47714;-56
2022/05/11 04:11:12;;;;;;;;;8.60;8.60;;;;;21.47;46.66;100758.94;2071390;28;48106;-54
2022/05/11 04:12:13;;;;;;;;;8.80;8.80;;;;;21.45;46.26;100764.44;2101858;28;47502;-55
2022/05/11 04:13:14;;;;;;;;;8.40;8.40;;;;;21.44;46.21;100766.28;2090773;28;47478;-54
2022/05/11 04:14:14;;;;;;;;;9.50;8.25;;;;;21.44;46.51;100762.72;2095420;28;47594;-55
2022/05/11 04:15:15;;;;;;;;;9.50;8.75;;;;;21.43;46.46;100761.84;2095670;28;47471;-54
2022/05/11 04:16:16;;;;;;;;;11.00;10.00;;;;;21.41;46.75;100766.50;2088314;28;47110;-53
2022/05/11 04:17:17;;;;;;;;;9.25;9.25;;;;;21.41;46.37;100763.81;2088680;28;47813;-53
2022/05/11 04:18:19;;;;;;;;;11.25;9.50;;;;;21.41;46.33;100771.03;2084428;28;47657;-55
2022/05/11 04:19:19;;;;;;;;;11.40;10.00;;;;;21.41;46.57;100771.03;2084517;28;47229;-54
2022/05/11 04:20:20;;;;;;;;;9.50;9.50;;;;;21.40;46.48;100778.25;2088471;28;47782;-54
2022/05/11 04:21:20;;;;;;;;;10.25;9.50;;;;;21.39;46.86;100776.53;2088357;28;47982;-54
2022/05/11 04:22:21;;;;;;;;;9.75;9.75;;;;;21.38;46.52;100774.81;2104722;28;47390;-55
2022/05/11 04:23:21;;;;;;;;;11.00;10.00;;;;;21.38;47.19;100780.22;2104448;28;47536;-54
2022/05/11 04:24:22;;;;;;;;;10.00;8.75;;;;;21.37;47.05;100775.78;2088392;28;47071;-53
2022/05/11 04:25:23;;;;;;;;;10.80;9.80;;;;;21.36;47.02;100776.75;2088463;28;47370;-55
2022/05/11 04:26:24;;;;;;;;;12.40;8.80;;;;;21.38;46.88;100776.63;2088288;28;48173;-55
2022/05/11 04:27:25;;;;;;;;;9.00;9.00;;;;;21.38;46.52;100774.81;2088410;28;47637;-52
2022/05/11 04:28:25;;;;;;;;;11.00;10.25;;;;;21.40;46.71;100778.25;2088573;28;47457;-54
2022/05/11 04:29:26;;;;;;;;;13.75;12.25;;;;;21.40;47.04;100780.97;2088338;28;46771;-54
2022/05/11 04:30:26;;;;;;;;;10.00;9.00;;;;;21.39;46.87;100771.13;2088661;28;47740;-53
2022/05/11 04:31:27;;;;;;;;;6.00;5.00;;;;;21.39;47.05;100773.84;2088209;28;47617;-54
2022/05/11 04:32:27;;;;;;;;;10.00;9.50;;;;;21.40;46.74;100772.88;2088525;28;46052;-55
2022/05/11 04:33:28;;;;;;;;;8.00;8.00;;;;;21.41;46.87;100771.03;2088387;28;46683;-54
2022/05/11 04:34:28;;;;;;;;;8.50;8.50;;;;;21.41;46.58;100769.19;2088465;28;47159;-55
2022/05/11 04:35:34;;;;;;;;;11.75;11.75;;;;;21.42;46.67;100770.06;2088526;28;47650;-55
2022/05/11 04:36:35;;;;;;;;;10.40;10.40;;;;;21.42;47.10;100770.06;2088546;28;47728;-54
2022/05/11 04:37:35;;;;;;;;;9.50;9.50;;;;;21.41;47.16;100773.72;2088496;28;47866;-54
2022/05/11 04:38:36;;;;;;;;;9.00;9.00;;;;;21.41;47.03;100771.03;2088665;28;47676;-56
2022/05/11 04:39:36;;;;;;;;;11.50;10.25;;;;;21.41;47.19;100771.03;2088397;28;47952;-53
2022/05/11 04:40:37;;;;;;;;;10.25;10.25;;;;;21.39;46.94;100768.44;2088435;28;47656;-56
2022/05/11 04:41:37;;;;;;;;;9.75;9.75;;;;;21.39;47.07;100764.88;2088444;28;48037;-55
2022/05/11 04:42:38;;;;;;;;;12.50;12.00;;;;;21.40;46.89;100763.91;2088412;28;48017;-55
2022/05/11 04:43:38;;;;;;;;;9.00;9.00;;;;;21.41;46.51;100768.34;2090744;28;48022;-55
2022/05/11 04:44:39;;;;;;;;;9.75;9.00;;;;;21.42;46.80;100765.53;2088278;28;47576;-54
2022/05/11 04:45:41;;;;;;;;;9.75;9.75;;;;;21.44;47.13;100768.13;2086166;28;47600;-54
2022/05/11 04:47:09;;;;;;;;;9.20;9.00;;;;;21.45;46.75;100769.84;2089898;28;47449;-54
2022/05/11 04:48:30;;;;;;;;;7.80;7.80;;;;;21.47;47.00;100767.03;2082459;28;47290;-55
2022/05/11 04:49:52;;;;;;;;;7.60;7.60;;;;;21.45;46.83;100768.00;2088219;28;46649;-55
2022/05/11 04:50:59;;;;;;;;;9.80;8.60;;;;;21.47;47.22;100764.34;2104875;28;47518;-55
2022/05/11 04:52:09;;;;;;;;;8.20;8.20;;;;;21.47;46.67;100767.03;2102928;28;48043;-56
2022/05/11 04:53:12;;;;;;;;;11.40;11.00;;;;;21.47;46.97;100759.84;2078519;28;47970;-56
2022/05/11 04:54:13;;;;;;;;;10.40;10.40;;;;;21.49;46.99;100763.31;2079125;28;47775;-54
2022/05/11 04:55:14;;;;;;;;;10.80;10.20;;;;;21.49;46.44;100766.00;2088346;28;48055;-54
2022/05/11 04:56:14;;;;;;;;;10.00;9.75;;;;;21.51;46.80;100760.50;2088443;28;47571;-55
2022/05/11 04:57:17;;;;;;;;;13.50;12.00;;;;;21.52;46.56;100763.09;2088150;28;47855;-54
2022/05/11 04:58:18;;;;;;;;;11.40;10.40;;;;;21.54;46.73;100766.56;2088275;28;48157;-54